sensor_id;sensor_type;location;lat;lon;timestamp;temperature;humidity
32626;DHT22;19038;50.922;11.880;2022-12-08T00:01:34;4.80;86.40
32626;DHT22;19038;50.922;11.880;2022-12-08T00:11:34;4.90;86.40
32626;DHT22;19038;50.922;11.880;2022-12-08T00:16:34;4.80;86.40
32626;DHT22;19038;50.922;11.880;2022-12-08T00:21:34;4.80;86.50
32626;DHT22;19038;50.922;11.880;2022-12-08T00:26:35;4.90;86.50
32626;DHT22;19038;50.922;11.880;2022-12-08T00:31:34;4.90;86.50
32626;DHT22;19038;50.922;11.880;2022-12-08T00:36:34;4.90;85.60
32626;DHT22;19038;50.922;11.880;2022-12-08T00:41:34;4.80;85.80
32626;DHT22;19038;50.922;11.880;2022-12-08T00:46:34;4.80;86.30
32626;DHT22;19038;50.922;11.880;2022-12-08T00:51:34;4.80;86.30
32626;DHT22;19038;50.922;11.880;2022-12-08T00:56:34;4.80;86.40
32626;DHT22;19038;50.922;11.880;2022-12-08T01:01:34;4.80;86.30
32626;DHT22;19038;50.922;11.880;2022-12-08T01:06:34;4.80;86.10
32626;DHT22;19038;50.922;11.880;2022-12-08T01:11:34;4.80;86.30
32626;DHT22;19038;50.922;11.880;2022-12-08T01:16:34;4.80;86.40
32626;DHT22;19038;50.922;11.880;2022-12-08T01:21:34;4.80;86.10
32626;DHT22;19038;50.922;11.880;2022-12-08T01:26:34;4.80;87.00
32626;DHT22;19038;50.922;11.880;2022-12-08T01:31:34;4.80;86.50
32626;DHT22;19038;50.922;11.880;2022-12-08T01:36:34;4.80;86.60
32626;DHT22;19038;50.922;11.880;2022-12-08T01:41:35;4.90;86.60
32626;DHT22;19038;50.922;11.880;2022-12-08T01:46:35;4.80;86.50
32626;DHT22;19038;50.922;11.880;2022-12-08T01:51:35;4.90;86.60
32626;DHT22;19038;50.922;11.880;2022-12-08T01:56:37;4.90;86.50
32626;DHT22;19038;50.922;11.880;2022-12-08T02:01:34;4.90;86.50
32626;DHT22;19038;50.922;11.880;2022-12-08T02:06:35;4.90;86.50
32626;DHT22;19038;50.922;11.880;2022-12-08T02:11:34;4.90;86.50
32626;DHT22;19038;50.922;11.880;2022-12-08T02:21:40;4.90;86.50
32626;DHT22;19038;50.922;11.880;2022-12-08T02:26:48;4.80;86.60
32626;DHT22;19038;50.922;11.880;2022-12-08T02:31:44;4.90;86.70
32626;DHT22;19038;50.922;11.880;2022-12-08T02:36:36;4.90;86.70
32626;DHT22;19038;50.922;11.880;2022-12-08T02:41:37;4.90;86.50
32626;DHT22;19038;50.922;11.880;2022-12-08T02:46:37;4.90;86.50
32626;DHT22;19038;50.922;11.880;2022-12-08T02:51:34;4.90;86.30
32626;DHT22;19038;50.922;11.880;2022-12-08T02:56:39;4.90;86.30
32626;DHT22;19038;50.922;11.880;2022-12-08T03:01:43;4.90;85.90
32626;DHT22;19038;50.922;11.880;2022-12-08T03:06:39;4.80;86.10
32626;DHT22;19038;50.922;11.880;2022-12-08T03:11:37;4.90;86.30
32626;DHT22;19038;50.922;11.880;2022-12-08T03:16:35;4.90;86.50
32626;DHT22;19038;50.922;11.880;2022-12-08T03:21:34;4.90;86.60
32626;DHT22;19038;50.922;11.880;2022-12-08T03:26:37;4.90;86.20
32626;DHT22;19038;50.922;11.880;2022-12-08T03:31:36;4.90;86.50
32626;DHT22;19038;50.922;11.880;2022-12-08T03:36:34;4.90;86.50
32626;DHT22;19038;50.922;11.880;2022-12-08T03:41:34;4.90;87.30
32626;DHT22;19038;50.922;11.880;2022-12-08T03:46:34;4.90;86.80
32626;DHT22;19038;50.922;11.880;2022-12-08T03:51:34;5.00;86.70
32626;DHT22;19038;50.922;11.880;2022-12-08T03:56:35;5.00;86.70
32626;DHT22;19038;50.922;11.880;2022-12-08T04:01:34;4.90;86.70
32626;DHT22;19038;50.922;11.880;2022-12-08T04:06:34;4.90;86.80
32626;DHT22;19038;50.922;11.880;2022-12-08T04:11:34;4.90;87.30
32626;DHT22;19038;50.922;11.880;2022-12-08T04:16:34;4.90;87.40
32626;DHT22;19038;50.922;11.880;2022-12-08T04:21:34;4.90;87.50
32626;DHT22;19038;50.922;11.880;2022-12-08T04:26:34;4.90;87.60
32626;DHT22;19038;50.922;11.880;2022-12-08T04:31:34;4.90;87.60
32626;DHT22;19038;50.922;11.880;2022-12-08T04:36:34;4.90;87.50
32626;DHT22;19038;50.922;11.880;2022-12-08T04:41:34;4.90;87.50
32626;DHT22;19038;50.922;11.880;2022-12-08T04:46:34;4.90;87.50
32626;DHT22;19038;50.922;11.880;2022-12-08T04:51:34;4.90;87.60
32626;DHT22;19038;50.922;11.880;2022-12-08T04:56:34;4.90;87.30
32626;DHT22;19038;50.922;11.880;2022-12-08T05:01:34;4.80;87.30
32626;DHT22;19038;50.922;11.880;2022-12-08T05:06:34;4.80;87.30
32626;DHT22;19038;50.922;11.880;2022-12-08T05:11:39;4.90;87.40
32626;DHT22;19038;50.922;11.880;2022-12-08T05:16:35;4.90;87.20
32626;DHT22;19038;50.922;11.880;2022-12-08T05:26:35;4.80;86.70
32626;DHT22;19038;50.922;11.880;2022-12-08T05:31:34;4.70;86.70
32626;DHT22;19038;50.922;11.880;2022-12-08T05:36:34;4.80;86.70
32626;DHT22;19038;50.922;11.880;2022-12-08T05:41:34;4.70;86.70
32626;DHT22;19038;50.922;11.880;2022-12-08T05:46:34;4.70;86.70
32626;DHT22;19038;50.922;11.880;2022-12-08T05:51:34;4.70;86.70
32626;DHT22;19038;50.922;11.880;2022-12-08T05:56:34;4.70;86.70
32626;DHT22;19038;50.922;11.880;2022-12-08T06:01:34;4.70;86.60
32626;DHT22;19038;50.922;11.880;2022-12-08T06:06:35;4.70;86.70
32626;DHT22;19038;50.922;11.880;2022-12-08T06:11:34;4.60;86.60
32626;DHT22;19038;50.922;11.880;2022-12-08T06:16:34;4.60;86.60
32626;DHT22;19038;50.922;11.880;2022-12-08T06:21:34;4.60;86.90
32626;DHT22;19038;50.922;11.880;2022-12-08T06:26:34;4.60;86.70
32626;DHT22;19038;50.922;11.880;2022-12-08T06:31:35;4.50;86.40
32626;DHT22;19038;50.922;11.880;2022-12-08T06:36:34;4.50;86.30
32626;DHT22;19038;50.922;11.880;2022-12-08T06:41:34;4.50;86.40
32626;DHT22;19038;50.922;11.880;2022-12-08T06:46:34;4.50;86.00
32626;DHT22;19038;50.922;11.880;2022-12-08T06:51:34;4.40;85.80
32626;DHT22;19038;50.922;11.880;2022-12-08T06:56:34;4.40;85.80
32626;DHT22;19038;50.922;11.880;2022-12-08T07:01:34;4.30;85.80
32626;DHT22;19038;50.922;11.880;2022-12-08T07:06:37;4.30;86.00
32626;DHT22;19038;50.922;11.880;2022-12-08T07:11:36;4.30;86.00
32626;DHT22;19038;50.922;11.880;2022-12-08T07:16:34;4.30;86.10
32626;DHT22;19038;50.922;11.880;2022-12-08T07:21:34;4.30;86.10
32626;DHT22;19038;50.922;11.880;2022-12-08T07:26:34;4.30;86.00
32626;DHT22;19038;50.922;11.880;2022-12-08T07:31:34;4.30;85.80
32626;DHT22;19038;50.922;11.880;2022-12-08T07:36:34;4.20;85.90
32626;DHT22;19038;50.922;11.880;2022-12-08T07:41:34;4.20;85.90
32626;DHT22;19038;50.922;11.880;2022-12-08T07:46:34;4.20;86.00
32626;DHT22;19038;50.922;11.880;2022-12-08T07:51:34;4.20;86.00
32626;DHT22;19038;50.922;11.880;2022-12-08T07:56:34;4.20;86.00
32626;DHT22;19038;50.922;11.880;2022-12-08T08:01:34;4.20;86.10
32626;DHT22;19038;50.922;11.880;2022-12-08T08:06:35;4.10;86.40
32626;DHT22;19038;50.922;11.880;2022-12-08T08:11:35;4.20;86.50
32626;DHT22;19038;50.922;11.880;2022-12-08T08:16:34;4.20;86.60
32626;DHT22;19038;50.922;11.880;2022-12-08T08:21:34;4.20;87.30
32626;DHT22;19038;50.922;11.880;2022-12-08T08:26:35;4.20;87.70
32626;DHT22;19038;50.922;11.880;2022-12-08T08:31:34;4.30;87.80
32626;DHT22;19038;50.922;11.880;2022-12-08T08:36:34;4.30;87.90
32626;DHT22;19038;50.922;11.880;2022-12-08T08:41:35;4.30;88.40
32626;DHT22;19038;50.922;11.880;2022-12-08T08:46:35;4.40;88.80
32626;DHT22;19038;50.922;11.880;2022-12-08T08:51:35;4.40;88.60
32626;DHT22;19038;50.922;11.880;2022-12-08T08:56:35;4.50;88.60
32626;DHT22;19038;50.922;11.880;2022-12-08T09:01:35;4.60;88.50
32626;DHT22;19038;50.922;11.880;2022-12-08T09:06:35;4.60;88.20
32626;DHT22;19038;50.922;11.880;2022-12-08T09:11:35;4.60;88.00
32626;DHT22;19038;50.922;11.880;2022-12-08T09:16:35;4.60;87.90
32626;DHT22;19038;50.922;11.880;2022-12-08T09:21:35;4.60;87.90
32626;DHT22;19038;50.922;11.880;2022-12-08T09:26:35;4.60;87.80
32626;DHT22;19038;50.922;11.880;2022-12-08T09:31:35;4.60;87.90
32626;DHT22;19038;50.922;11.880;2022-12-08T09:36:35;4.60;89.10
32626;DHT22;19038;50.922;11.880;2022-12-08T09:46:35;4.70;88.20
32626;DHT22;19038;50.922;11.880;2022-12-08T09:51:36;4.80;87.90
32626;DHT22;19038;50.922;11.880;2022-12-08T09:56:36;4.80;87.70
32626;DHT22;19038;50.922;11.880;2022-12-08T10:01:36;4.80;87.60
32626;DHT22;19038;50.922;11.880;2022-12-08T10:06:37;4.80;88.10
32626;DHT22;19038;50.922;11.880;2022-12-08T10:11:39;4.90;88.10
32626;DHT22;19038;50.922;11.880;2022-12-08T10:16:37;4.90;87.90
32626;DHT22;19038;50.922;11.880;2022-12-08T10:21:35;5.00;87.90
32626;DHT22;19038;50.922;11.880;2022-12-08T10:26:35;5.00;88.00
32626;DHT22;19038;50.922;11.880;2022-12-08T10:31:35;5.10;88.00
32626;DHT22;19038;50.922;11.880;2022-12-08T10:41:35;5.20;87.80
32626;DHT22;19038;50.922;11.880;2022-12-08T10:46:36;5.20;87.80
32626;DHT22;19038;50.922;11.880;2022-12-08T10:51:38;5.30;87.70
32626;DHT22;19038;50.922;11.880;2022-12-08T10:56:35;5.30;86.80
32626;DHT22;19038;50.922;11.880;2022-12-08T11:01:36;5.30;86.60
32626;DHT22;19038;50.922;11.880;2022-12-08T11:06:36;5.30;86.40
32626;DHT22;19038;50.922;11.880;2022-12-08T11:11:38;5.40;87.00
32626;DHT22;19038;50.922;11.880;2022-12-08T11:16:35;5.40;87.00
32626;DHT22;19038;50.922;11.880;2022-12-08T11:21:36;5.40;86.30
32626;DHT22;19038;50.922;11.880;2022-12-08T11:26:35;5.40;86.30
32626;DHT22;19038;50.922;11.880;2022-12-08T11:31:40;5.40;86.00
32626;DHT22;19038;50.922;11.880;2022-12-08T11:36:35;5.40;85.40
32626;DHT22;19038;50.922;11.880;2022-12-08T11:41:37;5.40;85.60
32626;DHT22;19038;50.922;11.880;2022-12-08T11:46:37;5.50;85.50
32626;DHT22;19038;50.922;11.880;2022-12-08T11:51:37;5.50;85.30
32626;DHT22;19038;50.922;11.880;2022-12-08T11:56:37;5.50;85.60
32626;DHT22;19038;50.922;11.880;2022-12-08T12:01:35;5.50;85.60
32626;DHT22;19038;50.922;11.880;2022-12-08T12:06:42;5.60;85.40
32626;DHT22;19038;50.922;11.880;2022-12-08T12:21:38;5.60;85.20
32626;DHT22;19038;50.922;11.880;2022-12-08T12:26:36;5.70;85.10
32626;DHT22;19038;50.922;11.880;2022-12-08T12:31:36;5.80;84.40
32626;DHT22;19038;50.922;11.880;2022-12-08T12:46:37;5.80;84.90
32626;DHT22;19038;50.922;11.880;2022-12-08T12:56:45;5.90;84.50
32626;DHT22;19038;50.922;11.880;2022-12-08T13:01:36;5.90;84.30
32626;DHT22;19038;50.922;11.880;2022-12-08T13:06:39;5.90;84.70
32626;DHT22;19038;50.922;11.880;2022-12-08T13:16:36;5.90;82.90
32626;DHT22;19038;50.922;11.880;2022-12-08T13:21:36;5.90;83.20
32626;DHT22;19038;50.922;11.880;2022-12-08T13:31:40;5.80;84.30
32626;DHT22;19038;50.922;11.880;2022-12-08T13:36:38;5.90;84.30
32626;DHT22;19038;50.922;11.880;2022-12-08T13:41:40;5.90;84.30
32626;DHT22;19038;50.922;11.880;2022-12-08T13:46:38;5.90;84.40
32626;DHT22;19038;50.922;11.880;2022-12-08T13:51:39;5.90;84.40
32626;DHT22;19038;50.922;11.880;2022-12-08T13:56:39;5.90;84.40
32626;DHT22;19038;50.922;11.880;2022-12-08T14:01:40;5.90;84.10
32626;DHT22;19038;50.922;11.880;2022-12-08T14:06:36;5.90;84.30
32626;DHT22;19038;50.922;11.880;2022-12-08T14:11:38;5.90;83.90
32626;DHT22;19038;50.922;11.880;2022-12-08T14:16:37;5.90;84.00
32626;DHT22;19038;50.922;11.880;2022-12-08T14:21:36;5.80;84.00
32626;DHT22;19038;50.922;11.880;2022-12-08T14:26:36;5.80;83.70
32626;DHT22;19038;50.922;11.880;2022-12-08T14:31:36;5.80;83.50
32626;DHT22;19038;50.922;11.880;2022-12-08T14:36:36;5.80;84.20
32626;DHT22;19038;50.922;11.880;2022-12-08T14:41:36;5.80;84.20
32626;DHT22;19038;50.922;11.880;2022-12-08T14:46:36;5.80;83.60
32626;DHT22;19038;50.922;11.880;2022-12-08T14:51:36;5.80;84.20
32626;DHT22;19038;50.922;11.880;2022-12-08T14:56:37;5.90;83.70
32626;DHT22;19038;50.922;11.880;2022-12-08T15:01:36;5.80;83.60
32626;DHT22;19038;50.922;11.880;2022-12-08T15:06:36;5.80;84.50
32626;DHT22;19038;50.922;11.880;2022-12-08T15:11:36;5.80;83.60
32626;DHT22;19038;50.922;11.880;2022-12-08T15:16:37;5.90;83.30
32626;DHT22;19038;50.922;11.880;2022-12-08T15:21:36;5.80;83.20
32626;DHT22;19038;50.922;11.880;2022-12-08T15:26:38;5.70;82.90
32626;DHT22;19038;50.922;11.880;2022-12-08T15:31:36;5.70;83.00
32626;DHT22;19038;50.922;11.880;2022-12-08T15:36:36;5.70;83.00
32626;DHT22;19038;50.922;11.880;2022-12-08T15:41:36;5.70;82.90
32626;DHT22;19038;50.922;11.880;2022-12-08T15:46:36;5.70;83.40
32626;DHT22;19038;50.922;11.880;2022-12-08T15:51:36;5.70;83.40
32626;DHT22;19038;50.922;11.880;2022-12-08T16:01:36;5.60;83.40
32626;DHT22;19038;50.922;11.880;2022-12-08T16:06:36;5.60;83.70
32626;DHT22;19038;50.922;11.880;2022-12-08T16:11:36;5.70;83.60
32626;DHT22;19038;50.922;11.880;2022-12-08T16:16:36;5.70;83.70
32626;DHT22;19038;50.922;11.880;2022-12-08T16:21:36;5.70;83.90
32626;DHT22;19038;50.922;11.880;2022-12-08T16:26:36;5.60;83.70
32626;DHT22;19038;50.922;11.880;2022-12-08T16:31:36;5.60;83.50
32626;DHT22;19038;50.922;11.880;2022-12-08T16:36:36;5.60;83.70
32626;DHT22;19038;50.922;11.880;2022-12-08T16:39:43;5.60;83.80
32626;DHT22;19038;50.922;11.880;2022-12-08T16:44:43;5.60;83.70
32626;DHT22;19038;50.922;11.880;2022-12-08T16:49:43;5.60;83.50
32626;DHT22;19038;50.922;11.880;2022-12-08T16:54:43;5.50;83.40
32626;DHT22;19038;50.922;11.880;2022-12-08T16:59:43;5.50;83.90
32626;DHT22;19038;50.922;11.880;2022-12-08T17:04:43;5.50;84.00
32626;DHT22;19038;50.922;11.880;2022-12-08T17:09:43;5.40;83.90
32626;DHT22;19038;50.922;11.880;2022-12-08T17:14:43;5.50;84.30
32626;DHT22;19038;50.922;11.880;2022-12-08T17:19:43;5.40;84.10
32626;DHT22;19038;50.922;11.880;2022-12-08T17:24:43;5.40;83.90
32626;DHT22;19038;50.922;11.880;2022-12-08T17:29:43;5.40;84.10
32626;DHT22;19038;50.922;11.880;2022-12-08T17:34:43;5.40;84.30
32626;DHT22;19038;50.922;11.880;2022-12-08T17:39:43;5.40;84.30
32626;DHT22;19038;50.922;11.880;2022-12-08T17:44:43;5.40;84.40
32626;DHT22;19038;50.922;11.880;2022-12-08T17:49:43;5.40;84.40
32626;DHT22;19038;50.922;11.880;2022-12-08T17:54:43;5.40;84.40
32626;DHT22;19038;50.922;11.880;2022-12-08T17:59:43;5.40;84.10
32626;DHT22;19038;50.922;11.880;2022-12-08T18:04:43;5.40;84.50
32626;DHT22;19038;50.922;11.880;2022-12-08T18:09:43;5.40;84.80
32626;DHT22;19038;50.922;11.880;2022-12-08T18:14:43;5.40;84.80
32626;DHT22;19038;50.922;11.880;2022-12-08T18:19:43;5.50;84.70
32626;DHT22;19038;50.922;11.880;2022-12-08T18:24:43;5.50;84.80
32626;DHT22;19038;50.922;11.880;2022-12-08T18:29:43;5.40;84.80
32626;DHT22;19038;50.922;11.880;2022-12-08T18:34:43;5.40;84.70
32626;DHT22;19038;50.922;11.880;2022-12-08T18:39:43;5.40;84.90
32626;DHT22;19038;50.922;11.880;2022-12-08T18:44:43;5.40;84.80
32626;DHT22;19038;50.922;11.880;2022-12-08T18:49:44;5.40;84.80
32626;DHT22;19038;50.922;11.880;2022-12-08T18:54:43;5.50;85.10
32626;DHT22;19038;50.922;11.880;2022-12-08T18:59:43;5.40;84.80
32626;DHT22;19038;50.922;11.880;2022-12-08T19:04:43;5.40;84.70
32626;DHT22;19038;50.922;11.880;2022-12-08T19:09:44;5.40;84.90
32626;DHT22;19038;50.922;11.880;2022-12-08T19:14:43;5.40;84.90
32626;DHT22;19038;50.922;11.880;2022-12-08T19:19:43;5.40;85.00
32626;DHT22;19038;50.922;11.880;2022-12-08T19:24:43;5.50;85.10
32626;DHT22;19038;50.922;11.880;2022-12-08T19:29:43;5.40;84.70
32626;DHT22;19038;50.922;11.880;2022-12-08T19:34:43;5.40;84.20
32626;DHT22;19038;50.922;11.880;2022-12-08T19:39:43;5.40;84.30
32626;DHT22;19038;50.922;11.880;2022-12-08T19:44:43;5.40;85.00
32626;DHT22;19038;50.922;11.880;2022-12-08T19:49:43;5.40;84.80
32626;DHT22;19038;50.922;11.880;2022-12-08T19:54:43;5.40;84.80
32626;DHT22;19038;50.922;11.880;2022-12-08T19:59:43;5.50;84.70
32626;DHT22;19038;50.922;11.880;2022-12-08T20:04:43;5.50;84.60
32626;DHT22;19038;50.922;11.880;2022-12-08T20:09:46;5.40;84.20
32626;DHT22;19038;50.922;11.880;2022-12-08T20:14:46;5.40;84.70
32626;DHT22;19038;50.922;11.880;2022-12-08T20:19:46;5.40;84.40
32626;DHT22;19038;50.922;11.880;2022-12-08T20:24:46;5.40;84.70
32626;DHT22;19038;50.922;11.880;2022-12-08T20:29:46;5.40;84.50
32626;DHT22;19038;50.922;11.880;2022-12-08T20:34:46;5.40;84.60
32626;DHT22;19038;50.922;11.880;2022-12-08T20:39:46;5.50;84.80
32626;DHT22;19038;50.922;11.880;2022-12-08T20:44:46;5.40;84.50
32626;DHT22;19038;50.922;11.880;2022-12-08T20:49:46;5.50;84.70
32626;DHT22;19038;50.922;11.880;2022-12-08T20:54:46;5.50;84.80
32626;DHT22;19038;50.922;11.880;2022-12-08T20:59:46;5.50;84.60
32626;DHT22;19038;50.922;11.880;2022-12-08T21:04:46;5.40;85.40
32626;DHT22;19038;50.922;11.880;2022-12-08T21:09:46;5.40;85.00
32626;DHT22;19038;50.922;11.880;2022-12-08T21:14:46;5.40;85.00
32626;DHT22;19038;50.922;11.880;2022-12-08T21:19:46;5.40;85.20
32626;DHT22;19038;50.922;11.880;2022-12-08T21:24:46;5.40;85.40
32626;DHT22;19038;50.922;11.880;2022-12-08T21:29:46;5.40;85.40
32626;DHT22;19038;50.922;11.880;2022-12-08T21:34:46;5.30;85.60
32626;DHT22;19038;50.922;11.880;2022-12-08T21:39:46;5.30;85.60
32626;DHT22;19038;50.922;11.880;2022-12-08T21:44:46;5.30;85.60
32626;DHT22;19038;50.922;11.880;2022-12-08T21:49:46;5.30;85.60
32626;DHT22;19038;50.922;11.880;2022-12-08T21:54:46;5.30;85.90
32626;DHT22;19038;50.922;11.880;2022-12-08T21:59:46;5.30;85.80
32626;DHT22;19038;50.922;11.880;2022-12-08T22:04:46;5.40;85.70
32626;DHT22;19038;50.922;11.880;2022-12-08T22:09:46;5.30;85.50
32626;DHT22;19038;50.922;11.880;2022-12-08T22:14:46;5.30;85.70
32626;DHT22;19038;50.922;11.880;2022-12-08T22:19:46;5.20;86.10
32626;DHT22;19038;50.922;11.880;2022-12-08T22:24:46;5.20;86.30
32626;DHT22;19038;50.922;11.880;2022-12-08T22:29:46;5.20;86.40
32626;DHT22;19038;50.922;11.880;2022-12-08T22:34:46;5.20;86.40
32626;DHT22;19038;50.922;11.880;2022-12-08T22:39:46;5.10;86.30
32626;DHT22;19038;50.922;11.880;2022-12-08T22:44:46;5.10;86.40
32626;DHT22;19038;50.922;11.880;2022-12-08T22:49:46;5.10;87.00
32626;DHT22;19038;50.922;11.880;2022-12-08T22:54:46;5.10;86.60
32626;DHT22;19038;50.922;11.880;2022-12-08T22:59:46;5.10;86.50
32626;DHT22;19038;50.922;11.880;2022-12-08T23:04:46;5.10;86.50
32626;DHT22;19038;50.922;11.880;2022-12-08T23:09:46;5.10;86.40
32626;DHT22;19038;50.922;11.880;2022-12-08T23:14:46;5.10;86.50
32626;DHT22;19038;50.922;11.880;2022-12-08T23:19:46;5.10;86.40
32626;DHT22;19038;50.922;11.880;2022-12-08T23:24:46;5.10;86.20
32626;DHT22;19038;50.922;11.880;2022-12-08T23:29:47;5.10;86.30
32626;DHT22;19038;50.922;11.880;2022-12-08T23:34:47;5.00;86.30
32626;DHT22;19038;50.922;11.880;2022-12-08T23:39:47;5.10;86.30
32626;DHT22;19038;50.922;11.880;2022-12-08T23:44:47;5.10;86.30
32626;DHT22;19038;50.922;11.880;2022-12-08T23:49:50;5.10;86.20
32626;DHT22;19038;50.922;11.880;2022-12-08T23:54:48;5.10;86.20
32626;DHT22;19038;50.922;11.880;2022-12-08T23:59:47;5.10;86.20
